createdAt,value
2017-06-15T00:00:44.321Z,0
2017-06-15T00:01:54.763Z,0
2017-06-15T00:03:04.067Z,0
2017-06-15T00:04:15.080Z,0
2017-06-15T00:05:24.672Z,0
2017-06-15T00:06:35.521Z,0
2017-06-15T00:07:44.871Z,0
2017-06-15T00:08:56.600Z,0
2017-06-15T00:10:09.162Z,0
2017-06-15T00:11:20.570Z,0
2017-06-15T00:12:29.693Z,0
2017-06-15T00:13:38.843Z,0
2017-06-15T00:14:49.565Z,0
2017-06-15T00:16:02.161Z,0
2017-06-15T00:17:11.145Z,0
2017-06-15T00:18:20.103Z,0
2017-06-15T00:19:29.077Z,0
2017-06-15T00:20:38.124Z,0
2017-06-15T00:21:47.080Z,0
2017-06-15T00:22:56.040Z,0
2017-06-15T00:24:04.998Z,0
2017-06-15T00:25:13.956Z,0
2017-06-15T00:26:23.239Z,0
2017-06-15T00:27:32.242Z,0
2017-06-15T00:28:41.199Z,0
2017-06-15T00:29:50.157Z,0
2017-06-15T00:30:59.112Z,0
2017-06-15T00:32:08.074Z,0
2017-06-15T00:33:17.031Z,0
2017-06-15T00:34:25.990Z,0
2017-06-15T00:35:34.951Z,0
2017-06-15T00:36:44.233Z,0
2017-06-15T00:37:53.187Z,0
2017-06-15T00:39:02.196Z,0
2017-06-15T00:40:11.152Z,0
2017-06-15T00:41:20.104Z,0
2017-06-15T00:42:29.057Z,0
2017-06-15T00:43:38.016Z,0
2017-06-15T00:44:46.970Z,0
2017-06-15T00:45:55.928Z,0
2017-06-15T00:47:04.886Z,0
2017-06-15T00:48:13.937Z,0
2017-06-15T00:49:22.893Z,0
2017-06-15T00:50:31.850Z,0
2017-06-15T00:51:40.812Z,0
2017-06-15T00:52:49.767Z,0
2017-06-15T00:53:58.721Z,0
2017-06-15T00:55:07.679Z,0
2017-06-15T00:56:16.681Z,0
2017-06-15T00:57:25.639Z,0
2017-06-15T00:58:34.597Z,0
2017-06-15T00:59:43.553Z,0
2017-06-15T01:00:52.599Z,0
2017-06-15T01:02:01.608Z,0
2017-06-15T01:03:10.566Z,0
2017-06-15T01:04:19.615Z,0
2017-06-15T01:05:28.658Z,0
2017-06-15T01:06:37.618Z,0
2017-06-15T01:07:46.577Z,0
2017-06-15T01:08:55.532Z,0
2017-06-15T01:10:04.488Z,0
2017-06-15T01:11:13.444Z,0
2017-06-15T01:12:22.400Z,0
2017-06-15T01:13:31.351Z,0
2017-06-15T01:14:40.305Z,0
2017-06-15T01:15:49.263Z,0
2017-06-15T01:16:58.217Z,0
2017-06-15T01:18:07.262Z,0
2017-06-15T01:19:16.218Z,0
2017-06-15T01:20:25.176Z,0
2017-06-15T01:21:34.219Z,0
2017-06-15T01:22:43.174Z,0
2017-06-15T01:23:52.134Z,0
2017-06-15T01:25:01.139Z,0
2017-06-15T01:26:10.095Z,0
2017-06-15T01:27:19.052Z,0
2017-06-15T01:28:28.020Z,0
2017-06-15T01:29:37.566Z,0
2017-06-15T01:30:46.574Z,0
2017-06-15T01:31:55.533Z,0
2017-06-15T01:33:04.816Z,0
2017-06-15T01:34:13.771Z,0
2017-06-15T01:35:22.728Z,0
2017-06-15T01:36:31.682Z,0
2017-06-15T01:37:40.638Z,0
2017-06-15T01:38:49.599Z,0
2017-06-15T01:39:58.557Z,0
2017-06-15T01:41:07.514Z,0
2017-06-15T01:42:16.841Z,0
2017-06-15T01:43:25.805Z,0
2017-06-15T01:44:34.805Z,0
2017-06-15T01:45:43.757Z,0
2017-06-15T01:46:52.715Z,0
2017-06-15T01:48:01.729Z,0
2017-06-15T01:49:10.691Z,0
2017-06-15T01:50:19.647Z,0
2017-06-15T01:51:28.605Z,0
2017-06-15T01:52:37.565Z,0
2017-06-15T01:53:46.514Z,0
2017-06-15T01:54:55.468Z,0
2017-06-15T01:56:04.422Z,0
2017-06-15T01:57:13.377Z,0
2017-06-15T01:58:22.334Z,0
2017-06-15T01:59:31.287Z,0
2017-06-15T02:00:40.242Z,0
2017-06-15T02:01:49.200Z,0
2017-06-15T02:02:58.151Z,0
2017-06-15T02:04:07.104Z,0
2017-06-15T02:05:16.113Z,0
2017-06-15T02:06:25.071Z,0
2017-06-15T02:07:34.026Z,0
2017-06-15T02:08:42.981Z,0
2017-06-15T02:09:51.939Z,0
2017-06-15T02:11:00.896Z,0
2017-06-15T02:12:09.863Z,0
2017-06-15T02:13:18.820Z,0
2017-06-15T02:14:27.782Z,0
2017-06-15T02:15:37.071Z,0
2017-06-15T02:16:46.027Z,0
2017-06-15T02:17:55.302Z,0
2017-06-15T02:19:04.254Z,0
2017-06-15T02:20:13.207Z,0
2017-06-15T02:21:22.162Z,0
2017-06-15T02:22:31.172Z,0
2017-06-15T02:23:40.129Z,0
2017-06-15T02:24:49.082Z,0
2017-06-15T02:25:58.037Z,0
2017-06-15T02:27:07.075Z,0
2017-06-15T02:28:16.081Z,0
2017-06-15T02:29:25.036Z,0
2017-06-15T02:30:33.994Z,0
2017-06-15T02:31:42.950Z,0
2017-06-15T02:32:51.902Z,0
2017-06-15T02:34:00.909Z,0
2017-06-15T02:35:09.865Z,0
2017-06-15T02:36:18.819Z,0
2017-06-15T02:37:27.777Z,0
2017-06-15T02:38:36.729Z,0
2017-06-15T02:39:45.689Z,0
2017-06-15T02:40:54.643Z,0
2017-06-15T02:42:03.598Z,0
2017-06-15T02:43:12.557Z,0
2017-06-15T02:44:21.512Z,0
2017-06-15T02:45:30.470Z,0
2017-06-15T02:46:39.428Z,0
2017-06-15T02:47:48.383Z,0
2017-06-15T02:48:57.336Z,0
2017-06-15T02:50:06.293Z,0
2017-06-15T02:51:15.298Z,0
2017-06-15T02:52:24.254Z,0
2017-06-15T02:53:33.209Z,0
2017-06-15T02:54:42.163Z,0
2017-06-15T02:55:51.112Z,0
2017-06-15T02:57:00.210Z,0
2017-06-15T02:58:09.257Z,0
2017-06-15T02:59:18.217Z,0
2017-06-15T03:00:27.254Z,0
2017-06-15T03:01:36.210Z,0
2017-06-15T03:02:45.162Z,0
2017-06-15T03:03:54.117Z,0
2017-06-15T03:05:03.115Z,0
2017-06-15T03:06:12.076Z,0
2017-06-15T03:07:21.033Z,0
2017-06-15T03:08:29.986Z,0
2017-06-15T03:09:38.940Z,0
2017-06-15T03:10:47.897Z,0
2017-06-15T03:11:56.856Z,0
2017-06-15T03:13:05.811Z,0
2017-06-15T03:14:14.901Z,0
2017-06-15T03:15:23.855Z,0
2017-06-15T03:16:32.812Z,0
2017-06-15T03:17:41.771Z,0
2017-06-15T03:18:51.046Z,0
2017-06-15T03:20:00.003Z,0
2017-06-15T03:21:08.959Z,0
2017-06-15T03:22:17.997Z,0
2017-06-15T03:23:26.950Z,5
2017-06-15T03:24:35.908Z,5
2017-06-15T03:25:44.917Z,5
2017-06-15T03:26:53.872Z,5
2017-06-15T03:28:02.831Z,5
2017-06-15T03:29:11.875Z,5
2017-06-15T03:30:20.831Z,5
2017-06-15T03:31:29.842Z,5
2017-06-15T03:32:38.798Z,5
2017-06-15T03:33:47.841Z,5
2017-06-15T03:34:56.795Z,5
2017-06-15T03:36:05.837Z,5
2017-06-15T03:37:14.793Z,5
2017-06-15T03:38:23.756Z,5
2017-06-15T03:39:32.714Z,5
2017-06-15T03:40:41.670Z,10
2017-06-15T03:41:50.624Z,10
2017-06-15T03:42:59.664Z,10
2017-06-15T03:44:08.621Z,10
2017-06-15T03:45:17.576Z,10
2017-06-15T03:46:26.531Z,10
2017-06-15T03:47:35.482Z,10
2017-06-15T03:48:44.486Z,10
2017-06-15T03:49:53.445Z,10
2017-06-15T03:51:02.399Z,10
2017-06-15T03:52:11.440Z,10
2017-06-15T03:53:20.391Z,15
2017-06-15T03:54:29.394Z,15
2017-06-15T03:55:38.675Z,15
2017-06-15T03:56:47.632Z,15
2017-06-15T03:57:56.912Z,15
2017-06-15T03:59:05.869Z,15
2017-06-15T04:00:14.830Z,10
2017-06-15T04:01:23.783Z,10
2017-06-15T04:02:32.825Z,10
2017-06-15T04:03:41.782Z,10
2017-06-15T04:04:50.740Z,10
2017-06-15T04:05:59.694Z,10
2017-06-15T04:07:08.647Z,10
2017-06-15T04:08:17.596Z,10
2017-06-15T04:09:26.878Z,15
2017-06-15T04:10:35.835Z,15
2017-06-15T04:11:44.794Z,15
2017-06-15T04:12:53.759Z,15
2017-06-15T04:14:02.714Z,15
2017-06-15T04:15:11.760Z,15
2017-06-15T04:16:20.716Z,15
2017-06-15T04:17:29.756Z,15
2017-06-15T04:18:38.713Z,20
2017-06-15T04:19:47.751Z,20
2017-06-15T04:20:56.709Z,20
2017-06-15T04:22:05.665Z,20
2017-06-15T04:23:14.669Z,20
2017-06-15T04:24:23.647Z,20
2017-06-15T04:25:32.607Z,20
2017-06-15T04:26:41.564Z,20
2017-06-15T04:27:50.519Z,20
2017-06-15T04:28:59.472Z,20
2017-06-15T04:30:08.431Z,20
2017-06-15T04:31:17.388Z,20
2017-06-15T04:32:26.344Z,20
2017-06-15T04:33:35.388Z,20
2017-06-15T04:34:44.398Z,20
2017-06-15T04:35:53.356Z,20
2017-06-15T04:37:02.318Z,20
2017-06-15T04:38:11.280Z,25
2017-06-15T04:39:20.235Z,25
2017-06-15T04:40:29.196Z,20
2017-06-15T04:41:38.151Z,20
2017-06-15T04:42:47.105Z,15
2017-06-15T04:43:56.066Z,15
2017-06-15T04:45:05.022Z,10
2017-06-15T04:46:14.036Z,10
2017-06-15T04:47:22.991Z,15
2017-06-15T04:48:32.275Z,20
2017-06-15T04:49:41.233Z,20
2017-06-15T04:50:50.190Z,20
2017-06-15T04:51:59.196Z,20
2017-06-15T04:53:08.153Z,20
2017-06-15T04:54:17.109Z,20
2017-06-15T04:55:26.152Z,20
2017-06-15T04:56:35.109Z,20
2017-06-15T04:57:44.062Z,20
2017-06-15T04:58:53.018Z,20
2017-06-15T05:00:01.988Z,20
2017-06-15T05:01:10.943Z,20
2017-06-15T05:02:19.999Z,20
2017-06-15T05:03:29.012Z,20
2017-06-15T05:04:37.966Z,20
2017-06-15T05:05:46.919Z,20
2017-06-15T05:06:55.874Z,20
2017-06-15T05:08:05.157Z,20
2017-06-15T05:09:14.165Z,20
2017-06-15T05:10:23.122Z,20
2017-06-15T05:11:32.079Z,20
2017-06-15T05:12:41.120Z,25
2017-06-15T05:13:50.077Z,25
2017-06-15T05:14:59.030Z,25
2017-06-15T05:16:07.985Z,25
2017-06-15T05:17:16.937Z,25
2017-06-15T05:18:25.896Z,25
2017-06-15T05:19:34.855Z,25
2017-06-15T05:20:43.860Z,25
2017-06-15T05:21:52.819Z,25
2017-06-15T05:23:01.776Z,25
2017-06-15T05:24:10.734Z,25
2017-06-15T05:25:19.780Z,25
2017-06-15T05:26:28.738Z,25
2017-06-15T05:27:37.698Z,25
2017-06-15T05:28:46.661Z,25
2017-06-15T05:29:55.618Z,25
2017-06-15T05:31:04.576Z,25
2017-06-15T05:32:13.538Z,30
2017-06-15T05:33:22.500Z,30
2017-06-15T05:34:31.460Z,30
2017-06-15T05:35:40.416Z,30
2017-06-15T05:36:49.372Z,30
2017-06-15T05:37:58.334Z,30
2017-06-15T05:39:07.298Z,30
2017-06-15T05:40:16.258Z,30
2017-06-15T05:41:25.216Z,30
2017-06-15T05:42:34.231Z,30
2017-06-15T05:43:43.189Z,30
2017-06-15T05:44:52.146Z,30
2017-06-15T05:46:01.104Z,30
2017-06-15T05:47:10.060Z,35
2017-06-15T05:48:19.020Z,35
2017-06-15T05:49:28.045Z,30
2017-06-15T05:50:37.329Z,35
2017-06-15T05:51:46.288Z,35
2017-06-15T05:52:55.247Z,40
2017-06-15T05:54:04.388Z,35
2017-06-15T05:55:13.397Z,35
2017-06-15T05:56:22.362Z,35
2017-06-15T05:57:31.327Z,35
2017-06-15T05:58:40.403Z,35
2017-06-15T05:59:49.441Z,35
2017-06-15T06:00:58.484Z,35
2017-06-15T06:02:08.090Z,35
2017-06-15T06:03:17.239Z,35
2017-06-15T06:04:26.199Z,35
2017-06-15T06:05:35.201Z,35
2017-06-15T06:06:44.372Z,35
2017-06-15T06:07:53.333Z,35
2017-06-15T06:09:02.392Z,35
2017-06-15T06:10:11.774Z,35
2017-06-15T06:11:20.852Z,35
2017-06-15T06:12:29.816Z,35
2017-06-15T06:13:38.772Z,35
2017-06-15T06:14:47.724Z,35
2017-06-15T06:15:56.682Z,35
2017-06-15T06:17:05.642Z,40
2017-06-15T06:18:14.651Z,40
2017-06-15T06:19:23.610Z,65
2017-06-15T06:20:32.568Z,95
2017-06-15T06:21:41.669Z,105
2017-06-15T06:22:50.750Z,145
2017-06-15T06:23:59.744Z,175
2017-06-15T06:25:08.763Z,135
2017-06-15T06:26:17.808Z,70
2017-06-15T06:27:27.181Z,45
2017-06-15T06:28:36.329Z,45
2017-06-15T06:29:45.527Z,45
2017-06-15T06:30:54.485Z,45
2017-06-15T06:32:03.491Z,45
2017-06-15T06:33:13.097Z,45
2017-06-15T06:34:22.124Z,45
2017-06-15T06:35:31.277Z,45
2017-06-15T06:36:40.339Z,45
2017-06-15T06:37:49.333Z,45
2017-06-15T06:38:58.393Z,50
2017-06-15T06:40:07.351Z,50
2017-06-15T06:41:16.304Z,50
2017-06-15T06:42:25.260Z,50
2017-06-15T06:43:34.284Z,50
2017-06-15T06:44:43.241Z,50
2017-06-15T06:45:52.321Z,50
2017-06-15T06:47:01.372Z,50
2017-06-15T06:48:10.479Z,50
2017-06-15T06:49:19.550Z,50
2017-06-15T06:50:28.636Z,55
2017-06-15T06:51:37.786Z,55
2017-06-15T06:52:46.822Z,50
2017-06-15T06:53:55.824Z,50
2017-06-15T06:55:04.943Z,55
2017-06-15T06:56:14.070Z,55
2017-06-15T06:57:23.074Z,55
2017-06-15T06:58:32.096Z,55
2017-06-15T06:59:41.073Z,60
2017-06-15T07:00:50.029Z,60
2017-06-15T07:01:59.185Z,60
2017-06-15T07:03:08.290Z,60
2017-06-15T07:04:17.393Z,60
2017-06-15T07:05:26.353Z,60
2017-06-15T07:06:35.553Z,60
2017-06-15T07:07:44.589Z,60
2017-06-15T07:08:53.584Z,60
2017-06-15T07:10:03.099Z,60
2017-06-15T07:11:12.146Z,60
2017-06-15T07:12:21.204Z,60
2017-06-15T07:13:30.247Z,60
2017-06-15T07:14:39.210Z,55
2017-06-15T07:15:48.169Z,55
2017-06-15T07:16:57.451Z,60
2017-06-15T07:18:06.410Z,60
2017-06-15T07:19:15.367Z,60
2017-06-15T07:20:24.324Z,60
2017-06-15T07:21:33.281Z,65
2017-06-15T07:22:45.425Z,65
2017-06-15T07:23:54.383Z,70
2017-06-15T07:25:03.678Z,70
2017-06-15T07:26:12.633Z,70
2017-06-15T07:27:21.596Z,70
2017-06-15T07:28:30.562Z,70
2017-06-15T07:29:39.524Z,70
2017-06-15T07:30:48.574Z,70
2017-06-15T07:31:57.531Z,65
2017-06-15T07:33:06.542Z,65
2017-06-15T07:34:15.503Z,65
2017-06-15T07:35:24.466Z,70
2017-06-15T07:36:33.425Z,70
2017-06-15T07:37:42.381Z,70
2017-06-15T07:38:51.341Z,70
2017-06-15T07:40:00.297Z,70
2017-06-15T07:41:09.262Z,70
2017-06-15T07:42:18.216Z,70
2017-06-15T07:43:27.185Z,70
2017-06-15T07:44:36.145Z,70
2017-06-15T07:45:45.104Z,70
2017-06-15T07:46:54.066Z,70
2017-06-15T07:48:03.026Z,70
2017-06-15T07:49:11.986Z,70
2017-06-15T07:50:20.948Z,70
2017-06-15T07:51:29.909Z,70
2017-06-15T07:52:38.881Z,70
2017-06-15T07:53:47.847Z,70
2017-06-15T07:54:56.810Z,70
2017-06-15T07:56:05.774Z,70
2017-06-15T07:57:14.737Z,70
2017-06-15T07:58:24.020Z,70
2017-06-15T07:59:32.983Z,65
2017-06-15T08:00:41.946Z,65
2017-06-15T08:01:50.907Z,70
2017-06-15T08:02:59.872Z,70
2017-06-15T08:04:08.834Z,65
2017-06-15T08:05:17.882Z,65
2017-06-15T08:06:26.843Z,65
2017-06-15T08:07:35.942Z,65
2017-06-15T08:08:44.903Z,65
2017-06-15T08:09:53.862Z,65
2017-06-15T08:11:02.906Z,65
2017-06-15T08:12:11.880Z,70
2017-06-15T08:13:20.841Z,75
2017-06-15T08:14:29.802Z,70
2017-06-15T08:15:38.764Z,65
2017-06-15T08:16:47.727Z,70
2017-06-15T08:17:56.693Z,70
2017-06-15T08:19:05.772Z,70
2017-06-15T08:20:14.733Z,65
2017-06-15T08:21:24.024Z,65
2017-06-15T08:22:32.986Z,65
2017-06-15T08:23:41.946Z,65
2017-06-15T08:24:50.902Z,65
2017-06-15T08:25:59.866Z,70
2017-06-15T08:27:08.826Z,70
2017-06-15T08:28:17.785Z,70
2017-06-15T08:29:26.742Z,70
2017-06-15T08:30:35.754Z,75
2017-06-15T08:31:44.716Z,75
2017-06-15T08:32:53.707Z,75
2017-06-15T08:34:02.691Z,70
2017-06-15T08:35:11.670Z,70
2017-06-15T08:36:20.710Z,70
2017-06-15T08:37:29.698Z,75
2017-06-15T08:38:38.679Z,75
2017-06-15T08:39:47.668Z,75
2017-06-15T08:40:56.989Z,70
2017-06-15T08:42:06.370Z,70
2017-06-15T08:43:15.336Z,75
2017-06-15T08:44:24.302Z,75
2017-06-15T08:45:33.264Z,80
2017-06-15T08:46:42.254Z,75
2017-06-15T08:47:51.233Z,80
2017-06-15T08:49:00.220Z,80
2017-06-15T08:50:09.213Z,80
2017-06-15T08:51:18.201Z,85
2017-06-15T08:52:27.222Z,85
2017-06-15T08:53:36.258Z,75
2017-06-15T08:54:45.240Z,85
2017-06-15T08:55:54.229Z,90
2017-06-15T08:57:03.211Z,95
2017-06-15T08:58:12.226Z,95
2017-06-15T08:59:21.265Z,95
2017-06-15T09:00:30.244Z,95
2017-06-15T09:01:39.229Z,85
2017-06-15T09:02:48.221Z,85
2017-06-15T09:03:57.234Z,80
2017-06-15T09:05:06.265Z,80
2017-06-15T09:06:15.245Z,80
2017-06-15T09:07:24.226Z,75
2017-06-15T09:08:33.215Z,85
2017-06-15T09:09:42.299Z,85
2017-06-15T09:10:51.331Z,85
2017-06-15T09:12:00.315Z,85
2017-06-15T09:13:09.305Z,85
2017-06-15T09:14:18.286Z,85
2017-06-15T09:15:27.298Z,85
2017-06-15T09:16:36.339Z,85
2017-06-15T09:17:45.329Z,90
2017-06-15T09:18:54.312Z,75
2017-06-15T09:20:03.324Z,80
2017-06-15T09:21:12.339Z,80
2017-06-15T09:22:21.323Z,75
2017-06-15T09:23:30.307Z,75
2017-06-15T09:24:39.287Z,75
2017-06-15T09:25:48.269Z,75
2017-06-15T09:26:57.257Z,75
2017-06-15T09:28:06.285Z,70
2017-06-15T09:29:15.351Z,70
2017-06-15T09:30:24.318Z,70
2017-06-15T09:31:33.282Z,70
2017-06-15T09:32:42.244Z,70
2017-06-15T09:33:51.201Z,75
2017-06-15T09:35:00.193Z,70
2017-06-15T09:36:09.196Z,70
2017-06-15T09:37:18.157Z,70
2017-06-15T09:38:27.128Z,70
2017-06-15T09:39:36.144Z,70
2017-06-15T09:40:45.109Z,70
2017-06-15T09:41:54.956Z,65
2017-06-15T09:43:03.922Z,70
2017-06-15T09:44:12.974Z,75
2017-06-15T09:45:21.938Z,75
2017-06-15T09:46:30.900Z,75
2017-06-15T09:47:40.198Z,70
2017-06-15T09:48:49.164Z,75
2017-06-15T09:49:58.127Z,75
2017-06-15T09:51:07.140Z,75
2017-06-15T09:52:16.194Z,75
2017-06-15T09:53:25.154Z,70
2017-06-15T09:54:34.438Z,75
2017-06-15T09:55:43.398Z,75
2017-06-15T09:56:52.692Z,75
2017-06-15T09:58:01.652Z,75
2017-06-15T09:59:10.619Z,75
2017-06-15T10:00:19.582Z,75
2017-06-15T10:01:28.547Z,70
2017-06-15T10:02:37.592Z,70
2017-06-15T10:03:46.550Z,75
2017-06-15T10:04:55.681Z,70
2017-06-15T10:06:04.643Z,75
2017-06-15T10:07:13.694Z,75
2017-06-15T10:08:22.706Z,75
2017-06-15T10:09:31.990Z,75
2017-06-15T10:10:40.950Z,75
2017-06-15T10:11:49.916Z,75
2017-06-15T10:12:58.885Z,75
2017-06-15T10:14:07.899Z,75
2017-06-15T10:15:16.863Z,75
2017-06-15T10:16:25.831Z,75
2017-06-15T10:17:34.795Z,75
2017-06-15T10:18:43.757Z,75
2017-06-15T10:19:52.774Z,75
2017-06-15T10:21:01.734Z,75
2017-06-15T10:22:10.696Z,80
2017-06-15T10:23:19.656Z,75
2017-06-15T10:24:28.610Z,75
2017-06-15T10:25:37.570Z,80
2017-06-15T10:26:46.534Z,75
2017-06-15T10:27:55.494Z,75
2017-06-15T10:29:04.458Z,75
2017-06-15T10:30:13.419Z,75
2017-06-15T10:31:22.383Z,75
2017-06-15T10:32:31.341Z,75
2017-06-15T10:33:40.301Z,75
2017-06-15T10:34:49.259Z,75
2017-06-15T10:35:58.221Z,75
2017-06-15T10:37:07.642Z,70
2017-06-15T10:38:16.602Z,75
2017-06-15T10:39:25.881Z,75
2017-06-15T10:40:34.842Z,75
2017-06-15T10:41:44.397Z,75
2017-06-15T10:42:53.451Z,75
2017-06-15T10:44:02.415Z,70
2017-06-15T10:45:11.377Z,70
2017-06-15T10:46:20.339Z,70
2017-06-15T10:47:29.300Z,70
2017-06-15T10:48:38.313Z,70
2017-06-15T10:49:47.273Z,70
2017-06-15T10:50:56.329Z,70
2017-06-15T10:52:05.292Z,70
2017-06-15T10:53:14.259Z,70
2017-06-15T10:54:23.688Z,70
2017-06-15T10:55:33.773Z,70
2017-06-15T10:56:42.736Z,70
2017-06-15T10:57:51.699Z,70
2017-06-15T10:59:00.663Z,70
2017-06-15T11:00:09.712Z,65
2017-06-15T11:01:18.672Z,65
2017-06-15T11:02:27.636Z,65
2017-06-15T11:03:36.594Z,70
2017-06-15T11:04:45.558Z,70
2017-06-15T11:05:54.856Z,70
2017-06-15T11:07:03.825Z,70
2017-06-15T11:08:12.788Z,70
2017-06-15T11:09:21.841Z,70
2017-06-15T11:10:30.801Z,70
2017-06-15T11:11:39.896Z,70
2017-06-15T11:12:48.858Z,65
2017-06-15T11:13:57.816Z,65
2017-06-15T11:15:06.774Z,65
2017-06-15T11:16:15.734Z,65
2017-06-15T11:17:24.696Z,65
2017-06-15T11:18:33.654Z,65
2017-06-15T11:19:42.614Z,70
2017-06-15T11:20:51.578Z,70
2017-06-15T11:22:00.541Z,70
2017-06-15T11:23:09.594Z,70
2017-06-15T11:24:18.560Z,70
2017-06-15T11:25:27.524Z,70
2017-06-15T11:26:36.492Z,75
2017-06-15T11:27:45.546Z,75
2017-06-15T11:28:54.840Z,75
2017-06-15T11:30:03.825Z,70
2017-06-15T11:31:12.788Z,70
2017-06-15T11:32:21.752Z,70
2017-06-15T11:33:30.715Z,65
2017-06-15T11:34:39.726Z,65
2017-06-15T11:35:48.782Z,70
2017-06-15T11:36:57.741Z,65
2017-06-15T11:38:06.702Z,65
2017-06-15T11:39:15.663Z,70
2017-06-15T11:40:24.726Z,70
2017-06-15T11:41:33.777Z,70
2017-06-15T11:42:42.738Z,65
2017-06-15T11:43:51.790Z,65
2017-06-15T11:45:00.842Z,70
2017-06-15T11:46:09.890Z,70
2017-06-15T11:47:18.847Z,65
2017-06-15T11:48:27.809Z,65
2017-06-15T11:49:36.769Z,60
2017-06-15T11:50:45.735Z,60
2017-06-15T11:51:54.701Z,60
2017-06-15T11:53:03.663Z,65
2017-06-15T11:54:12.625Z,65
2017-06-15T11:55:21.587Z,70
2017-06-15T11:56:30.551Z,65
2017-06-15T11:57:39.653Z,65
2017-06-15T11:58:48.615Z,60
2017-06-15T11:59:58.880Z,65
2017-06-15T12:01:07.847Z,65
2017-06-15T12:02:16.811Z,65
2017-06-15T12:03:25.772Z,65
2017-06-15T12:04:34.734Z,60
2017-06-15T12:05:43.844Z,60
2017-06-15T12:06:52.816Z,60
2017-06-15T12:08:01.780Z,60
2017-06-15T12:09:10.755Z,60
2017-06-15T12:10:19.732Z,60
2017-06-15T12:11:29.023Z,55
2017-06-15T12:12:38.018Z,60
2017-06-15T12:13:46.977Z,60
2017-06-15T12:14:56.093Z,60
2017-06-15T12:16:05.055Z,60
2017-06-15T12:17:14.098Z,60
2017-06-15T12:18:23.070Z,60
2017-06-15T12:19:32.029Z,60
2017-06-15T12:20:51.626Z,60
2017-06-15T12:22:14.673Z,55
2017-06-15T12:23:25.545Z,60
2017-06-15T12:24:34.679Z,60
2017-06-15T12:25:43.918Z,60
2017-06-15T12:26:53.231Z,60
2017-06-15T12:28:02.379Z,55
2017-06-15T12:29:11.626Z,55
2017-06-15T12:30:20.994Z,55
2017-06-15T12:31:30.165Z,55
2017-06-15T12:32:39.284Z,60
2017-06-15T12:33:48.252Z,60
2017-06-15T12:34:57.258Z,60
2017-06-15T12:36:06.351Z,60
2017-06-15T12:37:15.400Z,60
2017-06-15T12:38:24.393Z,60
2017-06-15T12:39:33.382Z,60
2017-06-15T12:40:42.343Z,60
2017-06-15T12:41:51.394Z,60
2017-06-15T12:43:00.423Z,60
2017-06-15T12:44:09.515Z,60
2017-06-15T12:45:18.486Z,65
2017-06-15T12:46:27.446Z,65
2017-06-15T12:47:36.535Z,65
2017-06-15T12:48:45.666Z,65
2017-06-15T12:49:54.763Z,65
2017-06-15T12:51:03.725Z,70
2017-06-15T12:52:13.315Z,65
2017-06-15T12:53:22.274Z,65
2017-06-15T12:54:31.272Z,70
2017-06-15T12:55:40.234Z,65
2017-06-15T12:56:49.350Z,65
2017-06-15T12:57:58.315Z,70
2017-06-15T12:59:07.279Z,70
2017-06-15T13:00:16.241Z,70
2017-06-15T13:01:25.205Z,70
2017-06-15T13:02:34.167Z,65
2017-06-15T13:03:43.218Z,70
2017-06-15T13:04:52.564Z,65
2017-06-15T13:06:01.556Z,65
2017-06-15T13:07:10.769Z,65
2017-06-15T13:08:19.732Z,65
2017-06-15T13:09:28.787Z,65
2017-06-15T13:10:37.810Z,65
2017-06-15T13:11:46.768Z,65
2017-06-15T13:12:55.746Z,65
2017-06-15T13:14:04.715Z,70
2017-06-15T13:15:13.706Z,70
2017-06-15T13:16:22.673Z,70
2017-06-15T13:17:31.666Z,70
2017-06-15T13:18:40.706Z,70
2017-06-15T13:19:49.994Z,70
2017-06-15T13:20:59.056Z,75
2017-06-15T13:22:08.133Z,75
2017-06-15T13:23:17.468Z,75
2017-06-15T13:24:26.567Z,75
2017-06-15T13:25:36.114Z,70
2017-06-15T13:26:45.077Z,70
2017-06-15T13:27:54.037Z,70
2017-06-15T13:29:03.150Z,70
2017-06-15T13:30:12.232Z,70
2017-06-15T13:31:21.483Z,70
2017-06-15T13:32:30.584Z,70
2017-06-15T13:33:39.612Z,70
2017-06-15T13:34:48.673Z,70
2017-06-15T13:35:57.703Z,70
2017-06-15T13:37:06.764Z,70
2017-06-15T13:38:15.798Z,70
2017-06-15T13:39:24.886Z,70
2017-06-15T13:40:33.853Z,70
2017-06-15T13:41:42.825Z,70
2017-06-15T13:42:51.849Z,70
2017-06-15T13:44:00.863Z,70
2017-06-15T13:45:09.917Z,70
2017-06-15T13:46:18.884Z,70
2017-06-15T13:47:27.978Z,75
2017-06-15T13:48:36.997Z,75
2017-06-15T13:49:46.174Z,70
2017-06-15T13:50:55.391Z,70
2017-06-15T13:52:04.785Z,75
2017-06-15T13:53:13.831Z,70
2017-06-15T13:54:22.793Z,70
2017-06-15T13:55:31.752Z,70
2017-06-15T13:56:40.830Z,70
2017-06-15T13:57:49.795Z,65
2017-06-15T13:58:59.092Z,65
2017-06-15T14:00:08.054Z,70
2017-06-15T14:01:17.085Z,65
2017-06-15T14:02:26.132Z,65
2017-06-15T14:03:35.150Z,65
2017-06-15T14:04:44.232Z,65
2017-06-15T14:05:53.194Z,65
2017-06-15T14:07:02.163Z,65
2017-06-15T14:08:11.127Z,65
2017-06-15T14:09:20.091Z,65
2017-06-15T14:10:29.058Z,65
2017-06-15T14:11:38.020Z,65
2017-06-15T14:12:47.017Z,65
2017-06-15T14:13:55.979Z,65
2017-06-15T14:15:04.946Z,65
2017-06-15T14:16:13.910Z,65
2017-06-15T14:17:22.872Z,65
2017-06-15T14:18:31.840Z,65
2017-06-15T14:19:40.806Z,65
2017-06-15T14:20:50.279Z,65
2017-06-15T14:21:59.336Z,65
2017-06-15T14:23:08.372Z,65
2017-06-15T14:24:17.328Z,65
2017-06-15T14:25:26.414Z,65
2017-06-15T14:26:35.376Z,65
2017-06-15T14:27:44.335Z,65
2017-06-15T14:28:53.301Z,65
2017-06-15T14:30:02.350Z,60
2017-06-15T14:31:11.320Z,65
2017-06-15T14:32:20.278Z,60
2017-06-15T14:33:29.330Z,55
2017-06-15T14:34:38.300Z,50
2017-06-15T14:35:47.263Z,55
2017-06-15T14:36:56.364Z,60
2017-06-15T14:38:05.334Z,55
2017-06-15T14:39:14.456Z,60
2017-06-15T14:40:23.543Z,60
2017-06-15T14:41:32.645Z,60
2017-06-15T14:42:41.664Z,60
2017-06-15T14:43:50.626Z,60
2017-06-15T14:44:59.589Z,60
2017-06-15T14:46:08.552Z,65
2017-06-15T14:47:17.516Z,65
2017-06-15T14:48:26.492Z,60
2017-06-15T14:49:35.462Z,60
2017-06-15T14:50:44.422Z,60
2017-06-15T14:51:53.566Z,60
2017-06-15T14:53:02.610Z,40
2017-06-15T14:54:11.629Z,40
2017-06-15T14:55:20.592Z,55
2017-06-15T14:56:29.558Z,60
2017-06-15T14:57:38.523Z,60
2017-06-15T14:58:47.487Z,60
2017-06-15T14:59:56.451Z,60
2017-06-15T15:01:05.413Z,45
2017-06-15T15:02:14.373Z,50
2017-06-15T15:03:23.334Z,40
2017-06-15T15:04:32.620Z,60
2017-06-15T15:05:41.635Z,50
2017-06-15T15:06:50.598Z,60
2017-06-15T15:07:59.566Z,60
2017-06-15T15:09:08.561Z,60
2017-06-15T15:10:17.523Z,55
2017-06-15T15:11:26.491Z,60
2017-06-15T15:12:35.454Z,60
2017-06-15T15:13:44.417Z,60
2017-06-15T15:14:53.376Z,55
2017-06-15T15:16:02.337Z,55
2017-06-15T15:17:11.355Z,50
2017-06-15T15:18:20.314Z,50
2017-06-15T15:19:29.277Z,45
2017-06-15T15:20:38.257Z,40
2017-06-15T15:21:47.221Z,35
2017-06-15T15:22:56.488Z,35
2017-06-15T15:24:05.636Z,35
2017-06-15T15:25:14.741Z,35
2017-06-15T15:26:23.734Z,40
2017-06-15T15:27:32.778Z,40
2017-06-15T15:28:41.746Z,40
2017-06-15T15:29:50.770Z,40
2017-06-15T15:30:59.908Z,40
2017-06-15T15:32:08.934Z,40
2017-06-15T15:33:18.072Z,40
2017-06-15T15:34:27.200Z,40
2017-06-15T15:35:36.286Z,40
2017-06-15T15:36:45.476Z,40
2017-06-15T15:37:54.526Z,40
2017-06-15T15:39:03.488Z,40
2017-06-15T15:40:12.450Z,35
2017-06-15T15:41:21.417Z,35
2017-06-15T15:42:30.381Z,35
2017-06-15T15:43:39.348Z,35
2017-06-15T15:44:48.313Z,35
2017-06-15T15:45:57.287Z,35
2017-06-15T15:47:06.494Z,35
2017-06-15T15:48:15.674Z,35
2017-06-15T15:49:24.756Z,35
2017-06-15T15:50:33.793Z,35
2017-06-15T15:51:42.811Z,35
2017-06-15T15:53:00.829Z,35
2017-06-15T15:54:18.534Z,35
2017-06-15T15:55:35.165Z,35
2017-06-15T15:56:45.287Z,35
2017-06-15T15:57:55.260Z,35
2017-06-15T15:59:04.626Z,35
2017-06-15T16:00:13.588Z,35
2017-06-15T16:01:22.548Z,35
2017-06-15T16:02:31.562Z,35
2017-06-15T16:03:41.284Z,35
2017-06-15T16:04:50.427Z,35
2017-06-15T16:05:59.416Z,35
2017-06-15T16:07:08.403Z,35
2017-06-15T16:08:17.528Z,35
2017-06-15T16:09:26.513Z,35
2017-06-15T16:10:35.592Z,35
2017-06-15T16:11:44.576Z,35
2017-06-15T16:12:53.561Z,35
2017-06-15T16:14:02.593Z,35
2017-06-15T16:15:11.584Z,35
2017-06-15T16:16:20.568Z,35
2017-06-15T16:17:29.551Z,35
2017-06-15T16:18:38.538Z,35
2017-06-15T16:19:47.568Z,35
2017-06-15T16:20:56.548Z,30
2017-06-15T16:22:05.623Z,30
2017-06-15T16:23:14.614Z,30
2017-06-15T16:24:23.606Z,30
2017-06-15T16:25:32.647Z,30
2017-06-15T16:26:41.660Z,35
2017-06-15T16:27:50.652Z,35
2017-06-15T16:28:59.730Z,30
2017-06-15T16:30:08.718Z,30
2017-06-15T16:31:17.709Z,30
2017-06-15T16:32:26.696Z,30
2017-06-15T16:33:35.679Z,30